sensor_id;sensor_type;location;lat;lon;timestamp;temperature;humidity
38568;DHT22;24338;48.280;10.970;2023-04-25T00:01:56;6.00;99.90
38568;DHT22;24338;48.280;10.970;2023-04-25T00:04:23;6.00;99.90
38568;DHT22;24338;48.280;10.970;2023-04-25T00:06:50;6.00;99.90
38568;DHT22;24338;48.280;10.970;2023-04-25T00:09:18;6.00;99.90
38568;DHT22;24338;48.280;10.970;2023-04-25T00:11:45;6.00;99.90
38568;DHT22;24338;48.280;10.970;2023-04-25T00:14:12;5.90;99.90
38568;DHT22;24338;48.280;10.970;2023-04-25T00:16:39;5.90;99.90
38568;DHT22;24338;48.280;10.970;2023-04-25T00:19:08;5.90;99.90
38568;DHT22;24338;48.280;10.970;2023-04-25T00:21:36;5.80;99.90
38568;DHT22;24338;48.280;10.970;2023-04-25T00:24:04;5.80;99.90
38568;DHT22;24338;48.280;10.970;2023-04-25T00:26:31;5.80;99.90
38568;DHT22;24338;48.280;10.970;2023-04-25T00:28:58;5.80;99.90
38568;DHT22;24338;48.280;10.970;2023-04-25T00:31:25;5.80;99.90
38568;DHT22;24338;48.280;10.970;2023-04-25T00:33:52;5.80;99.90
38568;DHT22;24338;48.280;10.970;2023-04-25T00:36:19;5.80;99.90
38568;DHT22;24338;48.280;10.970;2023-04-25T00:38:46;5.80;99.90
38568;DHT22;24338;48.280;10.970;2023-04-25T00:41:13;5.70;99.90
38568;DHT22;24338;48.280;10.970;2023-04-25T00:43:40;5.70;99.90
38568;DHT22;24338;48.280;10.970;2023-04-25T00:46:08;5.70;99.90
38568;DHT22;24338;48.280;10.970;2023-04-25T00:48:34;5.70;99.90
38568;DHT22;24338;48.280;10.970;2023-04-25T00:51:01;5.60;99.90
38568;DHT22;24338;48.280;10.970;2023-04-25T00:53:30;5.60;99.90
38568;DHT22;24338;48.280;10.970;2023-04-25T00:55:58;5.60;99.90
38568;DHT22;24338;48.280;10.970;2023-04-25T00:58:25;5.60;99.90
38568;DHT22;24338;48.280;10.970;2023-04-25T01:00:52;5.60;99.90
38568;DHT22;24338;48.280;10.970;2023-04-25T01:03:19;5.60;99.90
38568;DHT22;24338;48.280;10.970;2023-04-25T01:05:47;5.50;99.90
38568;DHT22;24338;48.280;10.970;2023-04-25T01:08:14;5.50;99.90
38568;DHT22;24338;48.280;10.970;2023-04-25T01:10:42;5.50;99.90
38568;DHT22;24338;48.280;10.970;2023-04-25T01:13:09;5.40;99.90
38568;DHT22;24338;48.280;10.970;2023-04-25T01:15:36;5.40;99.90
38568;DHT22;24338;48.280;10.970;2023-04-25T01:18:04;5.30;99.90
38568;DHT22;24338;48.280;10.970;2023-04-25T01:20:32;5.30;99.90
38568;DHT22;24338;48.280;10.970;2023-04-25T01:23:00;5.30;99.90
38568;DHT22;24338;48.280;10.970;2023-04-25T01:25:27;5.30;99.90
38568;DHT22;24338;48.280;10.970;2023-04-25T01:27:54;5.40;99.90
38568;DHT22;24338;48.280;10.970;2023-04-25T01:30:21;5.40;99.90
38568;DHT22;24338;48.280;10.970;2023-04-25T01:32:48;5.30;99.90
38568;DHT22;24338;48.280;10.970;2023-04-25T01:35:15;5.40;99.90
38568;DHT22;24338;48.280;10.970;2023-04-25T01:37:43;5.30;99.90
38568;DHT22;24338;48.280;10.970;2023-04-25T01:40:11;5.30;99.90
38568;DHT22;24338;48.280;10.970;2023-04-25T01:42:41;5.40;99.90
38568;DHT22;24338;48.280;10.970;2023-04-25T01:45:09;5.30;99.90
38568;DHT22;24338;48.280;10.970;2023-04-25T01:47:38;5.30;99.90
38568;DHT22;24338;48.280;10.970;2023-04-25T01:50:07;5.30;99.90
38568;DHT22;24338;48.280;10.970;2023-04-25T01:52:34;5.30;99.90
38568;DHT22;24338;48.280;10.970;2023-04-25T01:55:02;5.30;99.90
38568;DHT22;24338;48.280;10.970;2023-04-25T01:57:29;5.30;99.90
38568;DHT22;24338;48.280;10.970;2023-04-25T02:00:00;5.20;99.90
38568;DHT22;24338;48.280;10.970;2023-04-25T02:02:28;5.30;99.90
38568;DHT22;24338;48.280;10.970;2023-04-25T02:04:55;5.30;99.90
38568;DHT22;24338;48.280;10.970;2023-04-25T02:07:22;5.20;99.90
38568;DHT22;24338;48.280;10.970;2023-04-25T02:09:49;5.30;99.90
38568;DHT22;24338;48.280;10.970;2023-04-25T02:12:16;5.20;99.90
38568;DHT22;24338;48.280;10.970;2023-04-25T02:14:43;5.20;99.90
38568;DHT22;24338;48.280;10.970;2023-04-25T02:17:10;5.20;99.90
38568;DHT22;24338;48.280;10.970;2023-04-25T02:19:39;5.30;99.90
38568;DHT22;24338;48.280;10.970;2023-04-25T02:22:06;5.20;99.90
38568;DHT22;24338;48.280;10.970;2023-04-25T02:24:33;5.30;99.90
38568;DHT22;24338;48.280;10.970;2023-04-25T02:27:01;5.30;99.90
38568;DHT22;24338;48.280;10.970;2023-04-25T02:29:29;5.40;99.90
38568;DHT22;24338;48.280;10.970;2023-04-25T02:31:56;5.40;99.90
38568;DHT22;24338;48.280;10.970;2023-04-25T02:34:23;5.50;99.90
38568;DHT22;24338;48.280;10.970;2023-04-25T02:36:49;5.60;99.90
38568;DHT22;24338;48.280;10.970;2023-04-25T02:39:19;5.60;99.90
38568;DHT22;24338;48.280;10.970;2023-04-25T02:41:48;5.80;99.90
38568;DHT22;24338;48.280;10.970;2023-04-25T02:44:15;6.00;99.90
38568;DHT22;24338;48.280;10.970;2023-04-25T02:46:42;6.10;99.90
38568;DHT22;24338;48.280;10.970;2023-04-25T02:49:09;6.10;99.90
38568;DHT22;24338;48.280;10.970;2023-04-25T02:51:36;6.20;99.90
38568;DHT22;24338;48.280;10.970;2023-04-25T02:54:03;6.20;99.90
38568;DHT22;24338;48.280;10.970;2023-04-25T02:56:30;6.20;99.90
38568;DHT22;24338;48.280;10.970;2023-04-25T02:58:57;6.20;99.90
38568;DHT22;24338;48.280;10.970;2023-04-25T03:01:24;6.20;99.90
38568;DHT22;24338;48.280;10.970;2023-04-25T03:03:51;6.20;99.90
38568;DHT22;24338;48.280;10.970;2023-04-25T03:06:18;6.20;99.90
38568;DHT22;24338;48.280;10.970;2023-04-25T03:08:45;6.20;99.90
38568;DHT22;24338;48.280;10.970;2023-04-25T03:11:12;6.30;99.90
38568;DHT22;24338;48.280;10.970;2023-04-25T03:13:38;6.30;99.90
38568;DHT22;24338;48.280;10.970;2023-04-25T03:16:06;6.30;99.90
38568;DHT22;24338;48.280;10.970;2023-04-25T03:18:32;6.30;99.90
38568;DHT22;24338;48.280;10.970;2023-04-25T03:20:59;6.30;99.90
38568;DHT22;24338;48.280;10.970;2023-04-25T03:23:26;6.30;99.90
38568;DHT22;24338;48.280;10.970;2023-04-25T03:25:53;6.30;99.90
38568;DHT22;24338;48.280;10.970;2023-04-25T03:28:20;6.40;99.90
38568;DHT22;24338;48.280;10.970;2023-04-25T03:30:47;6.40;99.90
38568;DHT22;24338;48.280;10.970;2023-04-25T03:33:13;6.40;99.90
38568;DHT22;24338;48.280;10.970;2023-04-25T03:35:40;6.40;99.90
38568;DHT22;24338;48.280;10.970;2023-04-25T03:38:07;6.30;99.90
38568;DHT22;24338;48.280;10.970;2023-04-25T03:40:34;6.30;99.90
38568;DHT22;24338;48.280;10.970;2023-04-25T03:43:01;6.30;99.90
38568;DHT22;24338;48.280;10.970;2023-04-25T03:45:28;6.30;99.90
38568;DHT22;24338;48.280;10.970;2023-04-25T03:47:55;6.30;99.90
38568;DHT22;24338;48.280;10.970;2023-04-25T03:50:22;6.30;99.90
38568;DHT22;24338;48.280;10.970;2023-04-25T03:52:49;6.30;99.90
38568;DHT22;24338;48.280;10.970;2023-04-25T03:55:16;6.20;99.90
38568;DHT22;24338;48.280;10.970;2023-04-25T03:57:43;6.20;99.90
38568;DHT22;24338;48.280;10.970;2023-04-25T04:00:10;6.20;99.90
38568;DHT22;24338;48.280;10.970;2023-04-25T04:02:37;6.20;99.90
38568;DHT22;24338;48.280;10.970;2023-04-25T04:05:07;6.20;99.90
38568;DHT22;24338;48.280;10.970;2023-04-25T04:07:34;6.20;99.90
38568;DHT22;24338;48.280;10.970;2023-04-25T04:10:07;6.20;99.90
38568;DHT22;24338;48.280;10.970;2023-04-25T04:12:34;6.20;99.90
38568;DHT22;24338;48.280;10.970;2023-04-25T04:15:02;6.20;99.90
38568;DHT22;24338;48.280;10.970;2023-04-25T04:17:30;6.20;99.90
38568;DHT22;24338;48.280;10.970;2023-04-25T04:19:57;6.20;99.90
38568;DHT22;24338;48.280;10.970;2023-04-25T04:22:24;6.20;99.90
38568;DHT22;24338;48.280;10.970;2023-04-25T04:24:51;6.20;99.90
38568;DHT22;24338;48.280;10.970;2023-04-25T04:27:19;6.20;99.90
38568;DHT22;24338;48.280;10.970;2023-04-25T04:29:46;6.20;99.90
38568;DHT22;24338;48.280;10.970;2023-04-25T04:32:14;6.20;99.90
38568;DHT22;24338;48.280;10.970;2023-04-25T04:34:41;6.20;99.90
38568;DHT22;24338;48.280;10.970;2023-04-25T04:37:08;6.20;99.90
38568;DHT22;24338;48.280;10.970;2023-04-25T04:39:37;6.20;99.90
38568;DHT22;24338;48.280;10.970;2023-04-25T04:42:04;6.20;99.90
38568;DHT22;24338;48.280;10.970;2023-04-25T04:48:14;6.10;99.90
38568;DHT22;24338;48.280;10.970;2023-04-25T04:50:58;6.10;99.90
38568;DHT22;24338;48.280;10.970;2023-04-25T04:53:41;6.10;99.90
38568;DHT22;24338;48.280;10.970;2023-04-25T04:56:31;6.10;99.90
38568;DHT22;24338;48.280;10.970;2023-04-25T04:59:14;6.10;99.90
38568;DHT22;24338;48.280;10.970;2023-04-25T05:02:02;6.10;99.90
38568;DHT22;24338;48.280;10.970;2023-04-25T05:05:24;6.20;99.90
38568;DHT22;24338;48.280;10.970;2023-04-25T05:09:25;6.20;99.90
38568;DHT22;24338;48.280;10.970;2023-04-25T05:12:55;6.20;99.90
38568;DHT22;24338;48.280;10.970;2023-04-25T05:16:00;6.20;99.90
38568;DHT22;24338;48.280;10.970;2023-04-25T05:19:53;6.20;99.90
38568;DHT22;24338;48.280;10.970;2023-04-25T05:23:00;6.30;99.90
38568;DHT22;24338;48.280;10.970;2023-04-25T05:25:27;6.30;99.90
38568;DHT22;24338;48.280;10.970;2023-04-25T05:27:54;6.30;99.90
38568;DHT22;24338;48.280;10.970;2023-04-25T05:30:21;6.30;99.90
38568;DHT22;24338;48.280;10.970;2023-04-25T05:32:48;6.30;99.90
38568;DHT22;24338;48.280;10.970;2023-04-25T05:35:15;6.30;99.90
38568;DHT22;24338;48.280;10.970;2023-04-25T05:37:42;6.40;99.90
38568;DHT22;24338;48.280;10.970;2023-04-25T05:40:09;6.40;99.90
38568;DHT22;24338;48.280;10.970;2023-04-25T05:42:39;6.50;99.90
38568;DHT22;24338;48.280;10.970;2023-04-25T05:45:06;6.50;99.90
38568;DHT22;24338;48.280;10.970;2023-04-25T05:47:33;6.60;99.90
38568;DHT22;24338;48.280;10.970;2023-04-25T05:50:00;6.70;99.90
38568;DHT22;24338;48.280;10.970;2023-04-25T05:52:27;6.80;99.90
38568;DHT22;24338;48.280;10.970;2023-04-25T05:54:54;6.90;99.90
38568;DHT22;24338;48.280;10.970;2023-04-25T05:57:25;6.90;99.90
38568;DHT22;24338;48.280;10.970;2023-04-25T05:59:54;6.90;99.90
38568;DHT22;24338;48.280;10.970;2023-04-25T06:02:21;6.90;99.90
38568;DHT22;24338;48.280;10.970;2023-04-25T06:04:51;7.00;99.90
38568;DHT22;24338;48.280;10.970;2023-04-25T06:07:20;7.10;99.90
38568;DHT22;24338;48.280;10.970;2023-04-25T06:09:47;7.10;99.90
38568;DHT22;24338;48.280;10.970;2023-04-25T06:12:14;7.20;99.90
38568;DHT22;24338;48.280;10.970;2023-04-25T06:14:41;7.20;99.90
38568;DHT22;24338;48.280;10.970;2023-04-25T06:17:08;7.30;99.90
38568;DHT22;24338;48.280;10.970;2023-04-25T06:19:35;7.40;99.90
38568;DHT22;24338;48.280;10.970;2023-04-25T06:22:03;7.40;99.90
38568;DHT22;24338;48.280;10.970;2023-04-25T06:24:30;7.40;99.90
38568;DHT22;24338;48.280;10.970;2023-04-25T06:26:56;7.40;99.90
38568;DHT22;24338;48.280;10.970;2023-04-25T06:29:23;7.30;99.90
38568;DHT22;24338;48.280;10.970;2023-04-25T06:31:50;7.40;99.90
38568;DHT22;24338;48.280;10.970;2023-04-25T06:34:17;7.50;99.90
38568;DHT22;24338;48.280;10.970;2023-04-25T06:36:44;7.40;99.90
38568;DHT22;24338;48.280;10.970;2023-04-25T06:39:11;7.40;99.90
38568;DHT22;24338;48.280;10.970;2023-04-25T06:41:38;7.30;99.90
38568;DHT22;24338;48.280;10.970;2023-04-25T06:44:04;7.40;99.90
38568;DHT22;24338;48.280;10.970;2023-04-25T06:46:33;7.50;99.90
38568;DHT22;24338;48.280;10.970;2023-04-25T06:49:00;7.70;99.90
38568;DHT22;24338;48.280;10.970;2023-04-25T06:51:27;8.00;99.90
38568;DHT22;24338;48.280;10.970;2023-04-25T06:53:59;8.20;99.90
38568;DHT22;24338;48.280;10.970;2023-04-25T06:56:27;8.50;99.90
38568;DHT22;24338;48.280;10.970;2023-04-25T06:58:56;8.70;99.90
38568;DHT22;24338;48.280;10.970;2023-04-25T07:01:22;8.70;99.90
38568;DHT22;24338;48.280;10.970;2023-04-25T07:03:50;8.50;99.90
38568;DHT22;24338;48.280;10.970;2023-04-25T07:06:19;8.40;99.90
38568;DHT22;24338;48.280;10.970;2023-04-25T07:08:46;8.30;99.90
38568;DHT22;24338;48.280;10.970;2023-04-25T07:11:13;8.20;99.90
38568;DHT22;24338;48.280;10.970;2023-04-25T07:13:39;8.10;99.90
38568;DHT22;24338;48.280;10.970;2023-04-25T07:16:06;8.00;99.90
38568;DHT22;24338;48.280;10.970;2023-04-25T07:18:33;8.00;99.90
38568;DHT22;24338;48.280;10.970;2023-04-25T07:21:00;8.00;99.90
38568;DHT22;24338;48.280;10.970;2023-04-25T07:23:26;7.90;99.90
38568;DHT22;24338;48.280;10.970;2023-04-25T07:25:53;8.00;99.90
38568;DHT22;24338;48.280;10.970;2023-04-25T07:28:20;8.00;99.90
38568;DHT22;24338;48.280;10.970;2023-04-25T07:30:49;8.10;99.90
38568;DHT22;24338;48.280;10.970;2023-04-25T07:33:16;8.20;99.90
38568;DHT22;24338;48.280;10.970;2023-04-25T07:35:43;8.50;99.90
38568;DHT22;24338;48.280;10.970;2023-04-25T07:38:10;8.70;99.90
38568;DHT22;24338;48.280;10.970;2023-04-25T07:40:37;8.80;99.90
38568;DHT22;24338;48.280;10.970;2023-04-25T07:43:04;9.10;99.90
38568;DHT22;24338;48.280;10.970;2023-04-25T07:45:34;9.00;99.90
38568;DHT22;24338;48.280;10.970;2023-04-25T07:48:01;9.10;99.90
38568;DHT22;24338;48.280;10.970;2023-04-25T07:50:28;9.10;99.90
38568;DHT22;24338;48.280;10.970;2023-04-25T07:52:55;9.10;99.90
38568;DHT22;24338;48.280;10.970;2023-04-25T07:55:22;8.90;99.90
38568;DHT22;24338;48.280;10.970;2023-04-25T07:57:49;9.00;99.90
38568;DHT22;24338;48.280;10.970;2023-04-25T08:00:16;9.20;99.90
38568;DHT22;24338;48.280;10.970;2023-04-25T08:02:43;9.50;99.90
38568;DHT22;24338;48.280;10.970;2023-04-25T08:05:10;9.70;99.90
38568;DHT22;24338;48.280;10.970;2023-04-25T08:07:38;10.00;99.90
38568;DHT22;24338;48.280;10.970;2023-04-25T08:10:06;10.20;99.90
38568;DHT22;24338;48.280;10.970;2023-04-25T08:12:33;10.40;99.90
38568;DHT22;24338;48.280;10.970;2023-04-25T08:15:00;10.50;99.90
38568;DHT22;24338;48.280;10.970;2023-04-25T08:17:27;10.40;99.90
38568;DHT22;24338;48.280;10.970;2023-04-25T08:19:54;10.40;99.90
38568;DHT22;24338;48.280;10.970;2023-04-25T08:22:22;10.50;99.90
38568;DHT22;24338;48.280;10.970;2023-04-25T08:24:48;10.70;99.90
38568;DHT22;24338;48.280;10.970;2023-04-25T08:27:15;10.70;99.90
38568;DHT22;24338;48.280;10.970;2023-04-25T08:29:42;10.90;99.90
38568;DHT22;24338;48.280;10.970;2023-04-25T08:32:09;11.20;99.90
38568;DHT22;24338;48.280;10.970;2023-04-25T08:34:36;11.20;99.90
38568;DHT22;24338;48.280;10.970;2023-04-25T08:37:04;11.10;99.90
38568;DHT22;24338;48.280;10.970;2023-04-25T08:39:32;10.90;99.90
38568;DHT22;24338;48.280;10.970;2023-04-25T08:41:59;10.80;99.90
38568;DHT22;24338;48.280;10.970;2023-04-25T08:44:28;10.70;99.90
38568;DHT22;24338;48.280;10.970;2023-04-25T08:46:55;10.80;99.90
38568;DHT22;24338;48.280;10.970;2023-04-25T08:49:23;11.10;99.90
38568;DHT22;24338;48.280;10.970;2023-04-25T08:51:50;11.30;99.90
38568;DHT22;24338;48.280;10.970;2023-04-25T08:54:20;11.40;99.90
38568;DHT22;24338;48.280;10.970;2023-04-25T08:57:02;11.30;99.90
38568;DHT22;24338;48.280;10.970;2023-04-25T08:59:32;11.20;99.90
38568;DHT22;24338;48.280;10.970;2023-04-25T09:02:00;11.70;99.90
38568;DHT22;24338;48.280;10.970;2023-04-25T09:04:27;11.80;99.90
38568;DHT22;24338;48.280;10.970;2023-04-25T09:06:54;11.70;99.90
38568;DHT22;24338;48.280;10.970;2023-04-25T09:09:21;11.50;99.90
38568;DHT22;24338;48.280;10.970;2023-04-25T09:11:48;11.50;99.90
38568;DHT22;24338;48.280;10.970;2023-04-25T09:14:17;11.60;99.90
38568;DHT22;24338;48.280;10.970;2023-04-25T09:19:24;11.60;99.90
38568;DHT22;24338;48.280;10.970;2023-04-25T09:22:06;11.60;99.90
38568;DHT22;24338;48.280;10.970;2023-04-25T09:24:43;11.60;99.90
38568;DHT22;24338;48.280;10.970;2023-04-25T09:27:18;11.60;99.90
38568;DHT22;24338;48.280;10.970;2023-04-25T09:29:44;11.50;99.90
38568;DHT22;24338;48.280;10.970;2023-04-25T09:32:20;11.40;99.90
38568;DHT22;24338;48.280;10.970;2023-04-25T09:34:50;11.20;99.90
38568;DHT22;24338;48.280;10.970;2023-04-25T09:37:27;11.00;99.90
38568;DHT22;24338;48.280;10.970;2023-04-25T09:39:59;10.40;99.90
38568;DHT22;24338;48.280;10.970;2023-04-25T09:42:29;9.90;99.90
38568;DHT22;24338;48.280;10.970;2023-04-25T09:44:59;9.50;99.90
38568;DHT22;24338;48.280;10.970;2023-04-25T09:47:28;9.40;99.90
38568;DHT22;24338;48.280;10.970;2023-04-25T09:50:14;9.20;99.90
38568;DHT22;24338;48.280;10.970;2023-04-25T09:53:24;9.10;99.90
38568;DHT22;24338;48.280;10.970;2023-04-25T09:56:20;9.10;99.90
38568;DHT22;24338;48.280;10.970;2023-04-25T09:58:50;9.20;99.90
38568;DHT22;24338;48.280;10.970;2023-04-25T10:01:20;9.30;99.90
38568;DHT22;24338;48.280;10.970;2023-04-25T10:03:49;9.20;99.90
38568;DHT22;24338;48.280;10.970;2023-04-25T10:06:19;9.10;99.90
38568;DHT22;24338;48.280;10.970;2023-04-25T10:08:50;8.90;99.90
38568;DHT22;24338;48.280;10.970;2023-04-25T10:11:18;8.60;99.90
38568;DHT22;24338;48.280;10.970;2023-04-25T10:13:45;8.60;99.90
38568;DHT22;24338;48.280;10.970;2023-04-25T10:16:13;8.70;99.90
38568;DHT22;24338;48.280;10.970;2023-04-25T10:18:40;8.80;99.90
38568;DHT22;24338;48.280;10.970;2023-04-25T10:21:07;9.00;99.90
38568;DHT22;24338;48.280;10.970;2023-04-25T10:23:37;9.10;99.90
38568;DHT22;24338;48.280;10.970;2023-04-25T10:26:04;9.30;99.90
38568;DHT22;24338;48.280;10.970;2023-04-25T10:28:54;9.50;99.90
38568;DHT22;24338;48.280;10.970;2023-04-25T10:31:22;9.60;99.90
38568;DHT22;24338;48.280;10.970;2023-04-25T10:33:49;9.70;99.90
38568;DHT22;24338;48.280;10.970;2023-04-25T10:36:21;9.70;99.90
38568;DHT22;24338;48.280;10.970;2023-04-25T10:38:50;9.70;99.90
38568;DHT22;24338;48.280;10.970;2023-04-25T10:41:18;9.60;99.90
38568;DHT22;24338;48.280;10.970;2023-04-25T10:43:47;9.60;99.90
38568;DHT22;24338;48.280;10.970;2023-04-25T10:46:30;9.80;99.90
38568;DHT22;24338;48.280;10.970;2023-04-25T10:49:02;10.10;99.90
38568;DHT22;24338;48.280;10.970;2023-04-25T10:51:31;10.20;99.90
38568;DHT22;24338;48.280;10.970;2023-04-25T10:54:18;10.30;99.90
38568;DHT22;24338;48.280;10.970;2023-04-25T10:56:48;10.60;99.90
38568;DHT22;24338;48.280;10.970;2023-04-25T10:59:19;10.60;99.90
38568;DHT22;24338;48.280;10.970;2023-04-25T11:01:48;10.70;99.90
38568;DHT22;24338;48.280;10.970;2023-04-25T11:04:31;10.90;99.90
38568;DHT22;24338;48.280;10.970;2023-04-25T11:09:41;11.20;99.90
38568;DHT22;24338;48.280;10.970;2023-04-25T11:12:09;11.10;99.90
38568;DHT22;24338;48.280;10.970;2023-04-25T11:14:38;11.10;99.90
38568;DHT22;24338;48.280;10.970;2023-04-25T11:17:06;10.80;99.90
38568;DHT22;24338;48.280;10.970;2023-04-25T11:19:36;10.30;99.90
38568;DHT22;24338;48.280;10.970;2023-04-25T11:22:03;9.90;99.90
38568;DHT22;24338;48.280;10.970;2023-04-25T11:24:34;9.50;99.90
38568;DHT22;24338;48.280;10.970;2023-04-25T11:27:02;9.30;99.90
38568;DHT22;24338;48.280;10.970;2023-04-25T11:29:31;8.90;99.90
38568;DHT22;24338;48.280;10.970;2023-04-25T11:31:58;8.60;99.90
38568;DHT22;24338;48.280;10.970;2023-04-25T11:34:27;8.40;99.90
38568;DHT22;24338;48.280;10.970;2023-04-25T11:36:57;8.10;99.90
38568;DHT22;24338;48.280;10.970;2023-04-25T11:39:25;7.90;99.90
38568;DHT22;24338;48.280;10.970;2023-04-25T11:41:53;7.80;99.90
38568;DHT22;24338;48.280;10.970;2023-04-25T11:44:20;7.80;99.90
38568;DHT22;24338;48.280;10.970;2023-04-25T11:46:48;7.80;99.90
38568;DHT22;24338;48.280;10.970;2023-04-25T11:49:15;7.40;99.90
38568;DHT22;24338;48.280;10.970;2023-04-25T11:51:46;7.40;99.90
38568;DHT22;24338;48.280;10.970;2023-04-25T11:54:13;7.20;99.90
38568;DHT22;24338;48.280;10.970;2023-04-25T11:56:44;7.20;99.90
38568;DHT22;24338;48.280;10.970;2023-04-25T11:59:12;7.10;99.90
38568;DHT22;24338;48.280;10.970;2023-04-25T12:01:41;7.10;99.90
38568;DHT22;24338;48.280;10.970;2023-04-25T12:06:46;7.20;99.90
38568;DHT22;24338;48.280;10.970;2023-04-25T12:09:19;7.10;99.90
38568;DHT22;24338;48.280;10.970;2023-04-25T12:11:49;7.10;99.90
38568;DHT22;24338;48.280;10.970;2023-04-25T12:14:33;7.00;99.90
38568;DHT22;24338;48.280;10.970;2023-04-25T12:17:04;6.90;99.90
38568;DHT22;24338;48.280;10.970;2023-04-25T12:19:34;6.90;99.90
38568;DHT22;24338;48.280;10.970;2023-04-25T12:22:02;6.80;99.90
38568;DHT22;24338;48.280;10.970;2023-04-25T12:24:32;6.70;99.90
38568;DHT22;24338;48.280;10.970;2023-04-25T12:27:06;6.70;99.90
38568;DHT22;24338;48.280;10.970;2023-04-25T12:29:35;6.70;99.90
38568;DHT22;24338;48.280;10.970;2023-04-25T12:32:15;6.60;99.90
38568;DHT22;24338;48.280;10.970;2023-04-25T12:34:42;6.60;99.90
38568;DHT22;24338;48.280;10.970;2023-04-25T12:37:09;6.50;99.90
38568;DHT22;24338;48.280;10.970;2023-04-25T12:39:36;6.60;99.90
38568;DHT22;24338;48.280;10.970;2023-04-25T12:42:03;6.50;99.90
38568;DHT22;24338;48.280;10.970;2023-04-25T12:44:33;6.50;99.90
38568;DHT22;24338;48.280;10.970;2023-04-25T12:47:00;6.40;99.90
38568;DHT22;24338;48.280;10.970;2023-04-25T12:49:28;6.60;99.90
38568;DHT22;24338;48.280;10.970;2023-04-25T12:51:54;6.70;99.90
38568;DHT22;24338;48.280;10.970;2023-04-25T12:54:21;6.70;99.90
38568;DHT22;24338;48.280;10.970;2023-04-25T12:56:48;6.80;99.90
38568;DHT22;24338;48.280;10.970;2023-04-25T12:59:15;6.70;99.90
38568;DHT22;24338;48.280;10.970;2023-04-25T13:01:42;6.80;99.90
38568;DHT22;24338;48.280;10.970;2023-04-25T13:04:09;6.90;99.90
38568;DHT22;24338;48.280;10.970;2023-04-25T13:06:36;6.90;99.90
38568;DHT22;24338;48.280;10.970;2023-04-25T13:09:03;6.90;99.90
38568;DHT22;24338;48.280;10.970;2023-04-25T13:11:30;7.10;99.90
38568;DHT22;24338;48.280;10.970;2023-04-25T13:13:57;7.10;99.90
38568;DHT22;24338;48.280;10.970;2023-04-25T13:16:24;7.00;99.90
38568;DHT22;24338;48.280;10.970;2023-04-25T13:18:51;7.00;99.90
38568;DHT22;24338;48.280;10.970;2023-04-25T13:21:18;7.10;99.90
38568;DHT22;24338;48.280;10.970;2023-04-25T13:23:45;7.20;99.90
38568;DHT22;24338;48.280;10.970;2023-04-25T13:26:13;7.20;99.90
38568;DHT22;24338;48.280;10.970;2023-04-25T13:28:40;6.90;99.90
38568;DHT22;24338;48.280;10.970;2023-04-25T13:31:10;7.10;99.90
38568;DHT22;24338;48.280;10.970;2023-04-25T13:33:37;7.20;99.90
38568;DHT22;24338;48.280;10.970;2023-04-25T13:36:04;7.40;99.90
38568;DHT22;24338;48.280;10.970;2023-04-25T13:38:30;7.40;99.90
38568;DHT22;24338;48.280;10.970;2023-04-25T13:40:58;7.50;99.90
38568;DHT22;24338;48.280;10.970;2023-04-25T13:43:25;7.60;99.90
38568;DHT22;24338;48.280;10.970;2023-04-25T13:46:00;7.80;99.90
38568;DHT22;24338;48.280;10.970;2023-04-25T13:48:33;7.80;99.90
38568;DHT22;24338;48.280;10.970;2023-04-25T13:51:42;7.90;99.90
38568;DHT22;24338;48.280;10.970;2023-04-25T13:54:25;8.10;99.90
38568;DHT22;24338;48.280;10.970;2023-04-25T13:56:56;8.30;99.90
38568;DHT22;24338;48.280;10.970;2023-04-25T13:59:40;8.40;99.90
38568;DHT22;24338;48.280;10.970;2023-04-25T14:02:55;8.60;99.90
38568;DHT22;24338;48.280;10.970;2023-04-25T14:05:55;8.50;99.90
38568;DHT22;24338;48.280;10.970;2023-04-25T14:09:19;8.50;99.90
38568;DHT22;24338;48.280;10.970;2023-04-25T14:12:16;8.30;99.90
38568;DHT22;24338;48.280;10.970;2023-04-25T14:14:44;8.10;99.90
38568;DHT22;24338;48.280;10.970;2023-04-25T14:17:14;8.20;99.90
38568;DHT22;24338;48.280;10.970;2023-04-25T14:19:41;8.10;99.90
38568;DHT22;24338;48.280;10.970;2023-04-25T14:22:12;8.00;99.90
38568;DHT22;24338;48.280;10.970;2023-04-25T14:24:45;7.80;99.90
38568;DHT22;24338;48.280;10.970;2023-04-25T14:27:11;7.60;99.90
38568;DHT22;24338;48.280;10.970;2023-04-25T14:29:38;7.50;99.90
38568;DHT22;24338;48.280;10.970;2023-04-25T14:32:05;7.50;99.90
38568;DHT22;24338;48.280;10.970;2023-04-25T14:34:32;7.50;99.90
38568;DHT22;24338;48.280;10.970;2023-04-25T14:37:00;7.50;99.90
38568;DHT22;24338;48.280;10.970;2023-04-25T14:39:27;7.30;99.90
38568;DHT22;24338;48.280;10.970;2023-04-25T14:41:54;7.40;99.90
38568;DHT22;24338;48.280;10.970;2023-04-25T14:44:20;7.40;99.90
38568;DHT22;24338;48.280;10.970;2023-04-25T14:46:47;7.40;99.90
38568;DHT22;24338;48.280;10.970;2023-04-25T14:49:14;7.30;99.90
38568;DHT22;24338;48.280;10.970;2023-04-25T14:51:41;7.30;99.90
38568;DHT22;24338;48.280;10.970;2023-04-25T14:54:08;7.40;99.90
38568;DHT22;24338;48.280;10.970;2023-04-25T14:56:34;7.50;99.90
38568;DHT22;24338;48.280;10.970;2023-04-25T14:59:01;7.60;99.90
38568;DHT22;24338;48.280;10.970;2023-04-25T15:01:28;7.60;99.90
38568;DHT22;24338;48.280;10.970;2023-04-25T15:03:55;7.60;99.90
38568;DHT22;24338;48.280;10.970;2023-04-25T15:06:24;7.60;99.90
38568;DHT22;24338;48.280;10.970;2023-04-25T15:08:55;7.70;99.90
38568;DHT22;24338;48.280;10.970;2023-04-25T15:11:22;7.70;99.90
38568;DHT22;24338;48.280;10.970;2023-04-25T15:13:48;7.90;99.90
38568;DHT22;24338;48.280;10.970;2023-04-25T15:16:16;7.90;99.90
38568;DHT22;24338;48.280;10.970;2023-04-25T15:18:43;7.90;99.90
38568;DHT22;24338;48.280;10.970;2023-04-25T15:21:09;7.90;99.90
38568;DHT22;24338;48.280;10.970;2023-04-25T15:23:36;7.80;99.90
38568;DHT22;24338;48.280;10.970;2023-04-25T15:26:04;7.70;99.90
38568;DHT22;24338;48.280;10.970;2023-04-25T15:28:31;7.80;99.90
38568;DHT22;24338;48.280;10.970;2023-04-25T15:31:00;7.70;99.90
38568;DHT22;24338;48.280;10.970;2023-04-25T15:33:27;7.80;99.90
38568;DHT22;24338;48.280;10.970;2023-04-25T15:35:54;7.80;99.90
38568;DHT22;24338;48.280;10.970;2023-04-25T15:38:23;7.80;99.90
38568;DHT22;24338;48.280;10.970;2023-04-25T15:40:51;7.90;99.90
38568;DHT22;24338;48.280;10.970;2023-04-25T15:43:18;8.00;99.90
38568;DHT22;24338;48.280;10.970;2023-04-25T15:45:45;8.10;99.90
38568;DHT22;24338;48.280;10.970;2023-04-25T15:48:12;8.10;99.90
38568;DHT22;24338;48.280;10.970;2023-04-25T15:50:40;8.20;99.90
38568;DHT22;24338;48.280;10.970;2023-04-25T15:53:07;8.30;99.90
38568;DHT22;24338;48.280;10.970;2023-04-25T15:55:34;8.40;99.90
38568;DHT22;24338;48.280;10.970;2023-04-25T15:58:02;8.50;99.90
38568;DHT22;24338;48.280;10.970;2023-04-25T16:00:31;8.50;99.90